METAR AND TAF INFORMATION
METAR FOR VTBD
ADDS - METARS form results

(1249 UTC 20 February 2020)
Data provider http://aviationweather.gov/metar/data/
 
METAR text: VTBD 201230Z 09003KT 9000 NSC 31/17 Q1013 NOSIG
Conditions at: VTBD (BANGKOK/DON MUAN, TH) observed 1230 UTC 20 February 2020
Temperature: 31.0°C (88°F)
Dewpoint: 17.0°C (63°F) [RH = 43%]
Pressure (altimeter): 29.91 inches Hg (1013.0 mb)
Winds: from the E (90 degrees) at 3 MPH (3 knots; 1.5 m/s)
Visibility: 6 miles ( 9 km)
Ceiling: at least 12,000 feet AGL
Clouds: sky clear below 12,000 feet AGL
Weather: no significant weather observed at this time

METAR text: VTBD 201200Z 11003KT 9000 NSC 32/16 Q1012 NOSIG
Conditions at: VTBD (BANGKOK/DON MUAN, TH) observed 1200 UTC 20 February 2020
Temperature: 32.0°C (90°F)
Dewpoint: 16.0°C (61°F) [RH = 38%]
Pressure (altimeter): 29.88 inches Hg (1012.0 mb)
Winds: from the ESE (110 degrees) at 3 MPH (3 knots; 1.5 m/s)
Visibility: 6 miles ( 9 km)
Ceiling: at least 12,000 feet AGL
Clouds: sky clear below 12,000 feet AGL
Weather: no significant weather observed at this time

Forecast for: VTBD (BANGKOK/DON MUAN, TH)
Text: TAF VTBD 201100Z 2012/2118 16008KT 9000 FEW030
Forecast period: 1200 to 2200 UTC 20 February 2020
Forecast type: FROM: standard forecast or significant change
Winds: from the SSE (160 degrees) at 9 MPH (8 knots; 4.1 m/s)
Visibility: 6 miles (9 km)
Ceiling: at least 12,000 feet AGL
Clouds: few clouds at 3000 feet AGL
Weather: no significant weather forecast for this period
Text: BECMG 2022/2024 10010KT
Forecast period: 2200 UTC 20 February 2020 to 1800 UTC 21 February 2020
Forecast type: BECOMING: Conditions expected to become as follows by 0000 UTC 21 February 2020
Winds: from the E (100 degrees) at 12 MPH (10 knots; 5.1 m/s)
Visibility: 6 miles (9 km)
Ceiling: at least 12,000 feet AGL
Clouds: few clouds at 3000 feet AGL
Weather: no significant weather forecast for this period

 AIRPORT MAP

 RUNWAY INFORMATION
Runway 03L Runway length 12139 ft Runway width 197 ft
Runway elevation 7 ft Runway displaced threshold 0 ft Runway heading 29
Runway 21R Runway length 12139 ft Runway width 197 ft
Runway elevation 7 ft Runway displaced threshold 0 ft Runway heading 209
Runway 03R Runway length 11483 ft Runway width 148 ft
Runway elevation 7 ft Runway displaced threshold 0 ft Runway heading 29
Runway 21L Runway length 11483 ft Runway width 148 ft
Runway elevation 8 ft Runway displaced threshold 1148 ft Runway heading 209

 AIRPORT FREQUENCIES
Type APP Name APP Frequency 119.4 MHZ
Type ARR Name ARR Frequency 125.5 MHZ
Type ATIS Name ATIS Frequency 126.4 MHZ
Type CLD Name CLNC DEL Frequency 125.95 MHZ
Type GND Name GND Frequency 121.9 MHZ
Type TWR Name TWR Frequency 118.1 MHZ

 AIRPORT NEAR NAVIGATION AIDS
Type NDB Name Bangkok Frequency 293 KHZ
Type VOR-DME Name Bangkok Frequency 117700 KHZ